Savoonga, AK

7:26 AM AKDT on July 29, 2016 (GMT -0800)
Savoonga | | Change Station

Elev 52 ft 63.69 °N, 170.49 °W | Updated 10 minutes ago

Overcast
Overcast
52 °F
Feels Like 52 °F
N
15
Wind Variable Wind from WSW

Today
High -- | Low -- °F
--% Chance of Precip.
Yesterday
High -- | Low -- °F
Precip. -- in
Pressure 29.73 in
Visibility 9.0 miles
Clouds Overcast 1200 ft
Dew Point 48 °F
Humidity 88%
Rainfall 0.45 in
Snow Depth Not available.
6:26 AM 0:28 AM
Waning Crescent, 21% visible
METAR PASA 291516Z AUTO 25013KT 9SM OVC012 11/09 A2973 RMK AO1 P0003
Pressure 29.73 in
Visibility 9.0 miles
Clouds Overcast 1200 ft
Dew Point 48 °F
Humidity 88%
Rainfall 0.45 in
Snow Depth Not available.
6:26 AM 0:28 AM
Waning Crescent, 21% visible
METAR PASA 291516Z AUTO 25013KT 9SM OVC012 11/09 A2973 RMK AO1 P0003

10-Day Weather Forecast

Almanac

Astronomy

Jul. 29, 2016 Rise Set
Actual Time
Civil Twilight
Nautical Twilight
Astronomical Twilight
Moon
Length of Visible Light
Length of Day
Tomorrow will be .
, % of the Moon is Illuminated

Today's Extremes

State Highs State Lows

Community

WunderPhotos

Upload Photos

1,928,346 photos uploaded!

WunderBlog® & News

Nearby

Air Quality

  Air Quality AQ Index Pollutant
Not available.

Snow Depth

Station Depth Elevation

Earthquake Activity

City Distance Mag. Time & Date
Minimum magnitude displayed is 2.5.

Coastal Water Temperatures

Place Temperature

Stations

Nearby Weather Stations

Station Location Temp. Windchill Dew Point Humidity Wind Precip. Elev Updated Type
                   

Watches & Warnings

There are currently no watches in effect.